createdAt,value
2022-10-23T00:01:19.334Z,3.50
2022-10-23T00:03:47.933Z,3.20
2022-10-23T00:06:16.142Z,3.40
2022-10-23T00:08:44.313Z,3.67
2022-10-23T00:11:14.729Z,3.50
2022-10-23T00:13:42.801Z,3.27
2022-10-23T00:16:11.112Z,3.60
2022-10-23T00:18:42.440Z,3.30
2022-10-23T00:21:12.132Z,3.63
2022-10-23T00:23:40.474Z,3.57
2022-10-23T00:26:11.036Z,4.03
2022-10-23T00:28:39.323Z,3.70
2022-10-23T00:31:07.586Z,4.30
2022-10-23T00:33:35.657Z,4.37
2022-10-23T00:36:07.570Z,5.57
2022-10-23T00:38:35.887Z,6.63
2022-10-23T00:41:04.759Z,5.70
2022-10-23T00:43:33.527Z,10.47
2022-10-23T00:46:01.448Z,6.40
2022-10-23T00:48:30.148Z,3.90
2022-10-23T00:50:58.873Z,3.70
2022-10-23T00:53:28.173Z,3.60
2022-10-23T00:55:57.683Z,4.40
2022-10-23T00:58:25.539Z,4.73
2022-10-23T01:00:55.909Z,4.50
2022-10-23T01:03:27.453Z,4.17
2022-10-23T01:06:00.609Z,3.67
2022-10-23T01:08:34.721Z,3.67
2022-10-23T01:11:10.714Z,3.53
2022-10-23T01:13:44.914Z,4.47
2022-10-23T01:16:18.037Z,4.57
2022-10-23T01:18:49.913Z,5.77
2022-10-23T01:21:23.189Z,5.20
2022-10-23T01:24:13.935Z,5.07
2022-10-23T01:27:14.555Z,3.87
2022-10-23T01:29:47.593Z,4.37
2022-10-23T01:32:20.910Z,4.70
2022-10-23T01:34:52.966Z,4.60
2022-10-23T01:37:24.717Z,6.00
2022-10-23T01:39:56.243Z,5.27
2022-10-23T01:42:30.269Z,4.10
2022-10-23T01:45:04.185Z,3.80
2022-10-23T01:47:36.326Z,5.50
2022-10-23T01:50:07.084Z,4.40
2022-10-23T01:52:35.836Z,4.43
2022-10-23T01:55:03.751Z,4.53
2022-10-23T01:57:34.357Z,3.33
2022-10-23T02:00:06.241Z,4.10
2022-10-23T02:02:34.874Z,3.97
2022-10-23T02:05:06.157Z,3.60
2022-10-23T02:07:34.400Z,3.43
2022-10-23T02:10:03.627Z,4.53
2022-10-23T02:12:41.153Z,4.50
2022-10-23T02:15:15.104Z,4.90
2022-10-23T02:17:50.693Z,4.53
2022-10-23T02:20:23.205Z,4.73
2022-10-23T02:23:03.167Z,4.80
2022-10-23T02:25:35.402Z,4.57
2022-10-23T02:28:08.278Z,4.43
2022-10-23T02:30:38.810Z,5.10
2022-10-23T02:33:08.384Z,6.07
2022-10-23T02:35:36.552Z,5.57
2022-10-23T02:38:04.454Z,5.53
2022-10-23T02:40:37.615Z,5.37
2022-10-23T02:43:13.279Z,5.17
2022-10-23T02:45:47.747Z,5.00
2022-10-23T02:48:21.357Z,6.63
2022-10-23T02:50:57.796Z,5.10
2022-10-23T02:53:34.268Z,5.50
2022-10-23T02:56:07.257Z,5.60
2022-10-23T02:58:44.339Z,5.40
2022-10-23T03:01:16.805Z,5.50
2022-10-23T03:03:50.235Z,5.53
2022-10-23T03:06:18.546Z,5.07
2022-10-23T03:08:50.563Z,5.20
2022-10-23T03:11:18.418Z,4.63
2022-10-23T03:13:47.713Z,4.60
2022-10-23T03:16:15.639Z,4.83
2022-10-23T03:18:43.488Z,4.50
2022-10-23T03:21:11.375Z,4.60
2022-10-23T03:23:39.250Z,5.77
2022-10-23T03:26:07.538Z,5.60
2022-10-23T03:28:36.125Z,5.53
2022-10-23T03:31:06.349Z,5.23
2022-10-23T03:33:35.967Z,7.27
2022-10-23T03:36:04.183Z,5.70
2022-10-23T03:38:32.825Z,7.20
2022-10-23T03:41:00.619Z,7.30
2022-10-23T03:43:28.472Z,6.70
2022-10-23T03:45:57.051Z,7.30
2022-10-23T03:48:26.294Z,8.47
2022-10-23T03:50:54.176Z,8.27
2022-10-23T03:53:22.060Z,7.30
2022-10-23T03:55:49.916Z,7.30
2022-10-23T03:58:17.794Z,7.63
2022-10-23T04:00:45.761Z,10.67
2022-10-23T04:03:13.744Z,10.47
2022-10-23T04:05:44.216Z,14.57
2022-10-23T04:08:15.128Z,10.90
2022-10-23T04:10:45.477Z,9.57
2022-10-23T04:13:13.359Z,10.27
2022-10-23T04:15:41.267Z,8.80
2022-10-23T04:18:09.132Z,8.77
2022-10-23T04:20:36.981Z,8.80
2022-10-23T04:23:06.208Z,9.93
2022-10-23T04:25:34.122Z,8.87
2022-10-23T04:28:02.075Z,9.10
2022-10-23T04:30:29.909Z,9.80
2022-10-23T04:32:57.792Z,8.90
2022-10-23T04:35:25.809Z,8.57
2022-10-23T04:37:53.648Z,9.90
2022-10-23T04:40:22.865Z,8.57
2022-10-23T04:42:50.715Z,9.93
2022-10-23T04:45:18.551Z,7.53
2022-10-23T04:47:46.437Z,8.63
2022-10-23T04:50:14.653Z,9.77
2022-10-23T04:52:42.842Z,8.97
2022-10-23T04:55:11.082Z,8.40
2022-10-23T04:57:40.391Z,8.30
2022-10-23T05:00:10.774Z,7.40
2022-10-23T05:02:38.670Z,8.10
2022-10-23T05:05:08.521Z,7.90
2022-10-23T05:07:37.485Z,8.03
2022-10-23T05:10:05.663Z,8.20
2022-10-23T05:12:33.540Z,7.60
2022-10-23T05:15:02.748Z,7.30
2022-10-23T05:17:35.514Z,8.93
2022-10-23T05:20:06.866Z,8.50
2022-10-23T05:22:38.201Z,8.63
2022-10-23T05:25:06.721Z,7.93
2022-10-23T05:27:34.663Z,8.37
2022-10-23T05:30:04.007Z,8.20
2022-10-23T05:32:33.186Z,7.53
2022-10-23T05:35:08.262Z,7.83
2022-10-23T05:37:37.900Z,7.87
2022-10-23T05:40:06.680Z,7.33
2022-10-23T05:42:36.167Z,7.60
2022-10-23T05:45:08.769Z,8.60
2022-10-23T05:47:37.011Z,9.03
2022-10-23T05:50:05.121Z,9.23
2022-10-23T05:52:33.017Z,8.33
2022-10-23T05:55:03.603Z,8.30
2022-10-23T05:57:34.025Z,7.63
2022-10-23T06:00:05.266Z,7.73
2022-10-23T06:02:35.499Z,7.47
2022-10-23T06:05:03.407Z,7.47
2022-10-23T06:07:33.720Z,7.33
2022-10-23T06:10:05.103Z,7.13
2022-10-23T06:12:34.149Z,6.87
2022-10-23T06:15:02.009Z,7.03
2022-10-23T06:17:30.378Z,7.03
2022-10-23T06:20:02.399Z,6.63
2022-10-23T06:22:30.387Z,7.07
2022-10-23T06:24:58.263Z,6.10
2022-10-23T06:27:26.153Z,6.40
2022-10-23T06:29:54.010Z,7.13
2022-10-23T06:32:21.926Z,7.63
2022-10-23T06:34:49.897Z,7.37
2022-10-23T06:37:19.104Z,6.43
2022-10-23T06:39:47.027Z,7.07
2022-10-23T06:42:14.971Z,7.27
2022-10-23T06:44:42.804Z,7.17
2022-10-23T06:47:12.933Z,7.47
2022-10-23T06:49:40.951Z,8.23
2022-10-23T06:52:18.415Z,8.00
2022-10-23T06:54:52.396Z,8.47
2022-10-23T06:57:20.266Z,9.23
2022-10-23T06:59:48.101Z,9.23
2022-10-23T07:02:15.939Z,8.23
2022-10-23T07:04:43.769Z,8.97
2022-10-23T07:07:11.932Z,7.73
2022-10-23T07:09:39.852Z,7.70
2022-10-23T07:12:09.188Z,7.70
2022-10-23T07:14:37.101Z,8.07
2022-10-23T07:17:04.991Z,8.20
2022-10-23T07:19:32.847Z,7.27
2022-10-23T07:22:00.697Z,8.20
2022-10-23T07:24:29.099Z,7.60
2022-10-23T07:26:56.993Z,8.70
2022-10-23T07:29:26.288Z,7.73
2022-10-23T07:31:54.153Z,7.37
2022-10-23T07:34:24.892Z,8.17
2022-10-23T07:36:54.679Z,8.60
2022-10-23T07:39:23.014Z,9.80
2022-10-23T07:41:51.421Z,8.90
2022-10-23T07:44:25.738Z,11.00
2022-10-23T07:46:56.996Z,10.27
2022-10-23T07:49:24.841Z,9.27
2022-10-23T07:51:53.861Z,8.00
2022-10-23T07:54:21.812Z,11.63
2022-10-23T07:56:49.682Z,9.80
2022-10-23T07:59:17.571Z,11.43
2022-10-23T08:01:47.104Z,14.43
2022-10-23T08:04:18.738Z,12.80
2022-10-23T08:06:46.645Z,10.73
2022-10-23T08:09:14.511Z,10.03
2022-10-23T08:11:42.520Z,9.27
2022-10-23T08:14:11.146Z,10.90
2022-10-23T08:16:39.596Z,10.93
2022-10-23T08:19:08.874Z,10.83
2022-10-23T08:21:38.126Z,10.03
2022-10-23T08:24:06.574Z,9.20
2022-10-23T08:26:34.417Z,8.83
2022-10-23T08:29:05.166Z,8.60
2022-10-23T08:31:33.102Z,9.33
2022-10-23T08:34:00.953Z,7.20
2022-10-23T08:36:30.469Z,7.40
2022-10-23T08:38:59.799Z,7.87
2022-10-23T08:41:32.291Z,6.83
2022-10-23T08:44:06.917Z,6.53
2022-10-23T08:46:40.603Z,5.80
2022-10-23T08:49:21.633Z,5.93
2022-10-23T08:51:53.432Z,6.30
2022-10-23T08:54:27.545Z,6.40
2022-10-23T08:57:00.217Z,5.70
2022-10-23T08:59:33.087Z,5.63
2022-10-23T09:02:07.578Z,5.47
2022-10-23T09:04:36.166Z,4.97
2022-10-23T09:07:16.306Z,5.20
2022-10-23T09:09:59.897Z,4.77
2022-10-23T09:12:30.594Z,4.73
2022-10-23T09:15:17.292Z,4.43
2022-10-23T09:17:46.269Z,4.57
2022-10-23T09:20:20.180Z,4.77
2022-10-23T09:22:49.640Z,4.50
2022-10-23T09:25:21.087Z,4.63
2022-10-23T09:27:53.265Z,4.50
2022-10-23T09:30:29.413Z,4.83
2022-10-23T09:32:57.448Z,3.70
2022-10-23T09:35:28.072Z,3.57
2022-10-23T09:37:57.555Z,3.70
2022-10-23T09:40:34.344Z,3.40
2022-10-23T09:43:06.899Z,3.47
2022-10-23T09:45:38.039Z,3.37
2022-10-23T09:48:17.055Z,3.27
2022-10-23T09:50:53.748Z,3.73
2022-10-23T09:53:32.441Z,3.20
2022-10-23T09:56:04.492Z,2.83
2022-10-23T09:58:35.794Z,2.77
2022-10-23T10:01:04.425Z,2.37
2022-10-23T10:03:32.723Z,3.17
2022-10-23T10:06:03.232Z,2.33
2022-10-23T10:08:40.867Z,2.47
2022-10-23T10:11:16.164Z,2.50
2022-10-23T10:14:02.407Z,2.43
2022-10-23T10:16:42.766Z,2.53
2022-10-23T10:19:23.824Z,2.40
2022-10-23T10:22:01.233Z,2.00
2022-10-23T10:24:35.839Z,1.80
2022-10-23T10:27:12.812Z,1.60
2022-10-23T10:29:53.614Z,1.87
2022-10-23T10:32:32.096Z,2.10
2022-10-23T10:35:12.652Z,1.70
2022-10-23T10:37:50.011Z,1.57
2022-10-23T10:40:27.214Z,1.60
2022-10-23T10:43:15.683Z,1.60
2022-10-23T10:45:48.028Z,1.83
2022-10-23T10:48:33.610Z,2.03
2022-10-23T10:51:07.251Z,2.07
2022-10-23T10:53:48.584Z,1.93
2022-10-23T10:56:19.779Z,1.90
2022-10-23T10:58:53.713Z,1.90
2022-10-23T11:01:26.775Z,1.97
2022-10-23T11:04:00.841Z,1.70
2022-10-23T11:06:32.047Z,1.73
2022-10-23T11:09:19.784Z,2.07
2022-10-23T11:11:49.102Z,2.80
2022-10-23T11:14:20.785Z,1.80
2022-10-23T11:16:52.111Z,1.70
2022-10-23T11:19:25.869Z,2.20
2022-10-23T11:21:59.476Z,2.50
2022-10-23T11:24:54.593Z,2.13
2022-10-23T11:27:53.284Z,2.30
2022-10-23T11:30:26.092Z,2.07
2022-10-23T11:33:16.886Z,2.23
2022-10-23T11:35:54.521Z,1.90
2022-10-23T11:38:28.757Z,1.90
2022-10-23T11:41:03.035Z,2.07
2022-10-23T11:43:33.427Z,2.00
2022-10-23T11:46:14.077Z,2.10
2022-10-23T11:48:43.603Z,2.23
2022-10-23T11:51:31.959Z,2.30
2022-10-23T11:54:24.568Z,2.07
2022-10-23T11:56:56.256Z,1.70
2022-10-23T11:59:29.068Z,2.17
2022-10-23T12:02:01.459Z,2.10
2022-10-23T12:04:37.712Z,2.13
2022-10-23T12:07:17.684Z,2.00
2022-10-23T12:09:47.412Z,2.10
2022-10-23T12:12:19.163Z,2.10
2022-10-23T12:14:48.506Z,2.20
2022-10-23T12:17:37.187Z,2.53
2022-10-23T12:20:24.281Z,2.60
2022-10-23T12:23:03.543Z,2.20
2022-10-23T12:25:40.133Z,2.10
2022-10-23T12:28:15.536Z,2.37
2022-10-23T12:30:46.843Z,2.70
2022-10-23T12:33:29.457Z,2.40
2022-10-23T12:36:28.781Z,2.20
2022-10-23T12:38:58.630Z,2.73
2022-10-23T12:41:28.222Z,2.63
2022-10-23T12:43:59.255Z,2.67
2022-10-23T12:46:33.804Z,2.60
2022-10-23T12:49:04.893Z,2.60
2022-10-23T12:51:35.256Z,2.40
2022-10-23T12:54:04.631Z,2.50
2022-10-23T12:56:37.243Z,2.43
2022-10-23T12:59:11.854Z,2.50
2022-10-23T13:01:41.702Z,2.30
2022-10-23T13:06:53.907Z,2.27
2022-10-23T13:09:27.075Z,2.87
2022-10-23T13:11:56.494Z,2.30
2022-10-23T13:14:39.259Z,2.90
2022-10-23T13:17:12.250Z,3.17
2022-10-23T13:19:41.652Z,2.40
2022-10-23T13:22:20.505Z,2.53
2022-10-23T13:24:51.360Z,2.20
2022-10-23T13:27:27.730Z,2.50
2022-10-23T13:29:55.712Z,2.43
2022-10-23T13:32:25.003Z,2.57
2022-10-23T13:35:03.996Z,2.67
2022-10-23T13:40:23.607Z,2.90
2022-10-23T13:42:52.078Z,2.80
2022-10-23T13:45:23.645Z,2.93
2022-10-23T13:47:51.979Z,3.00
2022-10-23T13:50:21.394Z,2.57
2022-10-23T13:52:49.414Z,2.60
2022-10-23T13:55:22.575Z,2.70
2022-10-23T13:57:50.672Z,2.40
2022-10-23T14:00:19.287Z,2.20
2022-10-23T14:02:47.204Z,2.67
2022-10-23T14:05:15.182Z,2.30
2022-10-23T14:07:44.965Z,2.30
2022-10-23T14:10:13.092Z,2.13
2022-10-23T14:12:41.965Z,2.57
2022-10-23T14:15:11.397Z,2.37
2022-10-23T14:17:39.338Z,2.50
2022-10-23T14:20:08.618Z,2.03
2022-10-23T14:22:36.628Z,2.70
2022-10-23T14:25:07.241Z,2.90
2022-10-23T14:27:35.170Z,2.50
2022-10-23T14:30:03.088Z,2.57
2022-10-23T14:32:31.611Z,2.43
2022-10-23T14:34:59.471Z,2.97
2022-10-23T14:37:27.309Z,2.67
2022-10-23T14:39:55.224Z,3.03
2022-10-23T14:42:24.632Z,2.50
2022-10-23T14:44:52.673Z,3.00
2022-10-23T14:47:21.417Z,2.93
2022-10-23T14:49:54.928Z,2.70
2022-10-23T14:52:22.906Z,3.77
2022-10-23T14:54:53.814Z,3.17
2022-10-23T14:57:22.550Z,3.90
2022-10-23T14:59:51.864Z,2.60
2022-10-23T15:02:23.080Z,3.10
2022-10-23T15:04:51.128Z,5.53
2022-10-23T15:07:18.969Z,7.60
2022-10-23T15:09:46.913Z,4.10
2022-10-23T15:12:14.886Z,3.37
2022-10-23T15:14:42.777Z,3.73
2022-10-23T15:17:15.577Z,5.03
2022-10-23T15:19:43.795Z,10.50
2022-10-23T15:22:11.707Z,10.10
2022-10-23T15:24:39.671Z,16.10
2022-10-23T15:27:07.572Z,5.83
2022-10-23T15:29:35.490Z,12.33
2022-10-23T15:32:04.401Z,11.97
2022-10-23T15:34:33.826Z,10.63
2022-10-23T15:37:01.719Z,11.33
2022-10-23T15:39:34.961Z,7.47
2022-10-23T15:42:04.972Z,4.00
2022-10-23T15:44:34.945Z,4.13
2022-10-23T15:47:03.110Z,4.03
2022-10-23T15:49:31.215Z,5.07
2022-10-23T15:52:00.670Z,4.43
2022-10-23T15:54:32.029Z,8.23
2022-10-23T15:57:01.231Z,9.63
2022-10-23T15:59:30.246Z,6.80
2022-10-23T16:01:58.221Z,6.50
2022-10-23T16:04:26.161Z,6.00
2022-10-23T16:06:54.076Z,5.60
2022-10-23T16:09:23.284Z,6.13
2022-10-23T16:11:51.172Z,5.40
2022-10-23T16:14:19.100Z,3.97
2022-10-23T16:16:47.020Z,4.13
2022-10-23T16:19:15.341Z,3.87
2022-10-23T16:21:43.426Z,3.13
2022-10-23T16:24:11.810Z,3.13
2022-10-23T16:26:45.465Z,3.67
2022-10-23T16:29:13.389Z,3.37
2022-10-23T16:31:41.283Z,3.73
2022-10-23T16:34:09.351Z,3.50
2022-10-23T16:36:39.125Z,4.07
2022-10-23T16:39:07.519Z,5.13
2022-10-23T16:41:35.386Z,6.73
2022-10-23T16:44:05.096Z,8.47
2022-10-23T16:46:33.987Z,5.53
2022-10-23T16:49:02.949Z,5.73
2022-10-23T16:51:31.490Z,5.37
2022-10-23T16:54:00.079Z,5.17
2022-10-23T16:56:29.664Z,5.03
2022-10-23T17:01:54.645Z,4.97
2022-10-23T17:04:37.205Z,3.90
2022-10-23T17:07:05.416Z,4.63
2022-10-23T17:09:33.737Z,5.30
2022-10-23T17:12:02.526Z,5.30
2022-10-23T17:14:30.411Z,4.93
2022-10-23T17:17:02.066Z,6.97
2022-10-23T17:19:46.965Z,4.87
2022-10-23T17:22:17.310Z,4.20
2022-10-23T17:24:48.765Z,4.77
2022-10-23T17:27:19.827Z,4.27
2022-10-23T17:29:47.987Z,5.90
2022-10-23T17:32:17.382Z,4.67
2022-10-23T17:34:46.575Z,3.90
2022-10-23T17:37:14.907Z,3.83
2022-10-23T17:39:43.133Z,4.13
2022-10-23T17:42:11.507Z,4.60
2022-10-23T17:44:39.664Z,5.30
2022-10-23T17:47:07.660Z,4.90
2022-10-23T17:49:36.938Z,5.57
2022-10-23T17:52:05.687Z,6.10
2022-10-23T17:54:33.579Z,8.73
2022-10-23T17:57:01.505Z,5.70
2022-10-23T17:59:29.443Z,5.93
2022-10-23T18:01:59.493Z,5.87
2022-10-23T18:04:27.983Z,5.57
2022-10-23T18:06:59.815Z,4.90
2022-10-23T18:09:27.736Z,5.07
2022-10-23T18:11:55.635Z,4.67
2022-10-23T18:14:26.114Z,4.73
2022-10-23T18:16:56.515Z,4.73
2022-10-23T18:19:24.511Z,5.03
2022-10-23T18:21:52.453Z,4.23
2022-10-23T18:24:21.869Z,4.37
2022-10-23T18:26:49.935Z,4.97
2022-10-23T18:29:18.674Z,7.40
2022-10-23T18:31:48.095Z,5.97
2022-10-23T18:34:18.461Z,6.47
2022-10-23T18:36:46.949Z,5.40
2022-10-23T18:39:22.287Z,5.83
2022-10-23T18:41:53.963Z,5.83
2022-10-23T18:44:23.947Z,6.53
2022-10-23T18:46:53.047Z,5.67
2022-10-23T18:49:21.681Z,5.77
2022-10-23T18:51:51.751Z,5.90
2022-10-23T18:54:22.349Z,4.87
2022-10-23T18:56:51.935Z,7.20
2022-10-23T18:59:22.289Z,6.67
2022-10-23T19:01:51.076Z,5.37
2022-10-23T19:04:19.511Z,5.63
2022-10-23T19:06:49.094Z,5.57
2022-10-23T19:09:17.519Z,5.60
2022-10-23T19:11:46.233Z,6.37
2022-10-23T19:14:15.716Z,4.93
2022-10-23T19:16:46.833Z,5.40
2022-10-23T19:19:19.261Z,5.67
2022-10-23T19:21:48.401Z,6.03
2022-10-23T19:24:20.027Z,5.90
2022-10-23T19:26:48.792Z,5.53
2022-10-23T19:29:21.105Z,6.53
2022-10-23T19:31:50.084Z,6.00
2022-10-23T19:34:20.011Z,6.33
2022-10-23T19:36:50.590Z,6.93
2022-10-23T19:39:21.472Z,6.30
2022-10-23T19:41:51.488Z,6.63
2022-10-23T19:44:21.856Z,6.77
2022-10-23T19:46:50.025Z,6.77
2022-10-23T19:49:18.741Z,7.97
2022-10-23T19:51:51.458Z,8.20
2022-10-23T19:54:20.006Z,6.67
2022-10-23T19:56:48.160Z,8.27
2022-10-23T19:59:18.462Z,7.83
2022-10-23T20:01:49.426Z,8.10
2022-10-23T20:04:18.413Z,7.97
2022-10-23T20:06:46.799Z,7.20
2022-10-23T20:09:14.875Z,8.00
2022-10-23T20:11:43.519Z,9.70
2022-10-23T20:14:14.050Z,7.93
2022-10-23T20:16:45.452Z,9.07
2022-10-23T20:21:48.901Z,10.47
2022-10-23T20:24:18.947Z,10.00
2022-10-23T20:27:02.865Z,9.50
2022-10-23T20:33:19.585Z,9.77
2022-10-23T20:36:24.104Z,10.53
2022-10-23T20:38:52.256Z,10.47
2022-10-23T20:41:21.162Z,9.73
2022-10-23T20:43:49.250Z,9.77
2022-10-23T20:46:17.399Z,9.60
2022-10-23T20:48:46.381Z,8.73
2022-10-23T20:51:17.725Z,8.23
2022-10-23T20:53:47.724Z,8.20
2022-10-23T20:56:17.764Z,9.17
2022-10-23T20:58:45.825Z,9.10
2022-10-23T21:01:16.682Z,8.73
2022-10-23T21:03:45.552Z,9.03
2022-10-23T21:06:16.487Z,8.17
2022-10-23T21:08:55.338Z,7.97
2022-10-23T21:11:23.515Z,7.57
2022-10-23T21:13:51.525Z,7.63
2022-10-23T21:16:24.801Z,8.27
2022-10-23T21:18:56.185Z,8.30
2022-10-23T21:21:26.184Z,7.83
2022-10-23T21:23:56.549Z,8.33
2022-10-23T21:26:25.257Z,8.80
2022-10-23T21:29:13.750Z,8.40
2022-10-23T21:31:42.859Z,8.40
2022-10-23T21:37:07.574Z,7.17
2022-10-23T21:39:34.362Z,8.43
2022-10-23T21:42:02.459Z,7.97
2022-10-23T21:44:30.383Z,8.00
2022-10-23T21:46:58.234Z,8.70
2022-10-23T21:49:26.190Z,8.23
2022-10-23T21:51:55.791Z,7.93
2022-10-23T21:54:23.973Z,8.97
2022-10-23T21:56:56.946Z,10.47
2022-10-23T21:59:29.075Z,10.43
2022-10-23T22:02:00.008Z,11.27
2022-10-23T22:04:28.126Z,9.83
2022-10-23T22:06:57.565Z,10.70
2022-10-23T22:09:25.814Z,11.37
2022-10-23T22:11:54.449Z,8.77
2022-10-23T22:14:22.959Z,9.57
2022-10-23T22:16:54.163Z,10.80
2022-10-23T22:19:23.537Z,9.90
2022-10-23T22:21:52.519Z,9.67
2022-10-23T22:24:21.899Z,9.70
2022-10-23T22:26:55.155Z,10.83
2022-10-23T22:29:26.514Z,10.37
2022-10-23T22:31:54.512Z,10.60
2022-10-23T22:34:48.404Z,10.60
2022-10-23T22:37:14.642Z,11.27
2022-10-23T22:39:44.289Z,10.83
2022-10-23T22:42:14.017Z,9.70
2022-10-23T22:44:41.957Z,11.33
2022-10-23T22:47:16.203Z,10.57
2022-10-23T22:49:44.818Z,11.77
2022-10-23T22:52:14.573Z,11.97
2022-10-23T22:54:43.813Z,10.97
2022-10-23T22:57:11.734Z,10.97
2022-10-23T22:59:39.779Z,12.17
2022-10-23T23:02:08.306Z,11.47
2022-10-23T23:04:38.545Z,10.80
2022-10-23T23:07:07.655Z,10.77
2022-10-23T23:09:37.847Z,9.87
2022-10-23T23:12:08.784Z,10.77
2022-10-23T23:14:36.936Z,10.80
2022-10-23T23:17:05.092Z,10.83
2022-10-23T23:19:35.033Z,9.30
2022-10-23T23:22:02.979Z,11.33
2022-10-23T23:24:30.913Z,11.40
2022-10-23T23:26:58.788Z,10.07
2022-10-23T23:29:29.505Z,10.47
2022-10-23T23:32:00.149Z,10.50
2022-10-23T23:34:28.086Z,11.37
2022-10-23T23:36:56.004Z,11.07
2022-10-23T23:39:25.983Z,9.27
2022-10-23T23:41:54.051Z,11.90
2022-10-23T23:44:22.245Z,10.73
2022-10-23T23:46:51.499Z,11.40
2022-10-23T23:49:21.378Z,11.03
2022-10-23T23:51:49.283Z,10.50
2022-10-23T23:54:17.585Z,11.10
2022-10-23T23:56:45.490Z,11.13
2022-10-23T23:59:13.379Z,9.63
